Phoenix, AZ (85016)

10:54 AM MST on September 18, 2014 (GMT -0700)
Cheery Lynn Historical District | Change Station
CLOSE
Current Station
Personal Weather Station
Location: Phoenix, AZ
Elevation: 1125 ft
Nearby Weather Stations

Elev 1125 ft 33.49 °N, 112.05 °W | Updated 5 seconds ago

Clear
Clear
91.4 °F
Feels Like 96 °F
N
0.0
Wind Variable Wind from SE
Gusts 5.8 mph

Today
High -- | Low -- °F
--% Chance of Precip.
Yesterday
High -- | Low -- °F
Precip. -- in
6:13 AM 6:30 PM
Waning Crescent, 25% visible
Pressure 29.74 in
Visibility 10.0 miles
Clouds Few 5000 ft
Few 8000 ft
Heat Index 96 °F
Dew Point 68 °F
Humidity 47%
Rainfall 0.00 in
Snow Depth 2 in , 0 in , 0 in
UV 5 out of 12
Pollen 4.10 out of 12
PM2.5 Good
Flu Activity Not available.
METAR KPHX 181651Z 00000KT 10SM FEW050 FEW080 30/18 A2979 RMK AO2 SLP070 T03000178

More Conditions Fewer Conditions

Pressure 29.74 in
Visibility 10.0 miles
Clouds Few 5000 ft
Few 8000 ft
Heat Index 96 °F
Dew Point 68 °F
Humidity 47%
Rainfall 0.00 in
Snow Depth 2 in , 0 in , 0 in
UV 5 out of 12
Pollen 4.10 out of 12
PM2.5 Good
Flu Activity Not available.
METAR KPHX 181651Z 00000KT 10SM FEW050 FEW080 30/18 A2979 RMK AO2 SLP070 T03000178

More Conditions Fewer Conditions

10-Day Weather Forecast

Almanac

Astronomy

Sep. 18, 2014 Rise Set
Actual Time 6:13 AM MST 6:30 PM MST
Civil Twilight 5:48 AM MST 6:55 PM MST
Nautical Twilight 5:19 AM MST 7:24 PM MST
Astronomical Twilight 4:50 AM MST 7:53 PM MST
Moon 1:20 AM MST 3:13 PM MST
Length of Visible Light 13h 06m
Length of Day
12h 16m
Tomorrow will be 2m 3s shorter.
Waning Crescent, 25% of the Moon is Illuminated
Today
Waning Crescent
Sep 24
New
Oct 1
First Quarter
Oct 8
Full
Oct 15
Last Quarter

Today's Extremes

State Highs State Lows

Community

WunderPhotos

Upload Photos

1,754,409 photos uploaded!

Nearby

Air Quality

  Air Quality AQ Index Pollutant
Yesterday Good
OZONE
Yesterday Good
PM10
Current Good
PM2.5
Thursday Good
OZONE
Thursday Good
PM10
Thursday Good
CO
Friday Good
OZONE
Friday Good
PM10
Friday Good
CO
Saturday Good
OZONE
Saturday Good
PM10
Saturday Good
CO

Snow Depth

Station Depth Elevation
Workman Creek 2 in 6900 ft
Promontory 0 in 7930 ft
Fry 0 in 7200 ft
White Horse Lake 0 in 7180 ft
Coronado Trail 0 in 8400 ft

Earthquake Activity

City Distance Mag. Time & Date
No recent earthquake activity has been reported nearby.
Minimum magnitude displayed is 2.5.

Coastal Water Temperatures

Place Temperature
No Stations Reporting

Nearby Weather Stations